sensor_id;sensor_type;location;lat;lon;timestamp;P1;durP1;ratioP1;P2;durP2;ratioP2
4462;SDS011;2244;50.200;8.220;2023-05-28T00:01:17;19.47;;;6.20;;
4462;SDS011;2244;50.200;8.220;2023-05-28T00:03:45;14.97;;;5.33;;
4462;SDS011;2244;50.200;8.220;2023-05-28T00:06:12;19.43;;;6.47;;
4462;SDS011;2244;50.200;8.220;2023-05-28T00:08:40;17.30;;;5.97;;
4462;SDS011;2244;50.200;8.220;2023-05-28T00:11:08;20.13;;;5.70;;
4462;SDS011;2244;50.200;8.220;2023-05-28T00:13:35;19.53;;;6.53;;
4462;SDS011;2244;50.200;8.220;2023-05-28T00:16:02;18.90;;;5.70;;
4462;SDS011;2244;50.200;8.220;2023-05-28T00:18:30;18.33;;;7.07;;
4462;SDS011;2244;50.200;8.220;2023-05-28T00:20:57;21.87;;;6.40;;
4462;SDS011;2244;50.200;8.220;2023-05-28T00:23:25;16.33;;;6.23;;
4462;SDS011;2244;50.200;8.220;2023-05-28T00:25:52;17.67;;;6.00;;
4462;SDS011;2244;50.200;8.220;2023-05-28T00:28:20;20.33;;;6.70;;
4462;SDS011;2244;50.200;8.220;2023-05-28T00:30:48;14.27;;;5.43;;
4462;SDS011;2244;50.200;8.220;2023-05-28T00:33:15;16.30;;;6.10;;
4462;SDS011;2244;50.200;8.220;2023-05-28T00:35:42;18.53;;;5.90;;
4462;SDS011;2244;50.200;8.220;2023-05-28T00:38:10;15.00;;;5.40;;
4462;SDS011;2244;50.200;8.220;2023-05-28T00:40:41;18.37;;;5.80;;
4462;SDS011;2244;50.200;8.220;2023-05-28T00:43:06;19.30;;;6.40;;
4462;SDS011;2244;50.200;8.220;2023-05-28T00:45:34;17.03;;;6.37;;
4462;SDS011;2244;50.200;8.220;2023-05-28T00:48:01;18.60;;;6.20;;
4462;SDS011;2244;50.200;8.220;2023-05-28T00:50:29;15.00;;;5.47;;
4462;SDS011;2244;50.200;8.220;2023-05-28T00:52:56;19.73;;;6.50;;
4462;SDS011;2244;50.200;8.220;2023-05-28T00:55:24;18.60;;;6.10;;
4462;SDS011;2244;50.200;8.220;2023-05-28T00:57:52;16.50;;;5.53;;
4462;SDS011;2244;50.200;8.220;2023-05-28T01:00:21;17.67;;;6.30;;
4462;SDS011;2244;50.200;8.220;2023-05-28T01:02:48;18.40;;;6.53;;
4462;SDS011;2244;50.200;8.220;2023-05-28T01:05:16;16.23;;;6.10;;
4462;SDS011;2244;50.200;8.220;2023-05-28T01:07:43;16.80;;;6.43;;
4462;SDS011;2244;50.200;8.220;2023-05-28T01:10:11;20.10;;;6.47;;
4462;SDS011;2244;50.200;8.220;2023-05-28T01:12:38;17.17;;;6.57;;
4462;SDS011;2244;50.200;8.220;2023-05-28T01:15:07;19.20;;;7.17;;
4462;SDS011;2244;50.200;8.220;2023-05-28T01:17:34;18.60;;;5.43;;
4462;SDS011;2244;50.200;8.220;2023-05-28T01:20:02;19.83;;;6.67;;
4462;SDS011;2244;50.200;8.220;2023-05-28T01:22:31;17.70;;;6.77;;
4462;SDS011;2244;50.200;8.220;2023-05-28T01:25:00;16.03;;;6.40;;
4462;SDS011;2244;50.200;8.220;2023-05-28T01:27:28;22.80;;;6.60;;
4462;SDS011;2244;50.200;8.220;2023-05-28T01:29:55;16.33;;;6.60;;
4462;SDS011;2244;50.200;8.220;2023-05-28T01:32:23;18.10;;;6.90;;
4462;SDS011;2244;50.200;8.220;2023-05-28T01:34:52;22.00;;;7.20;;
4462;SDS011;2244;50.200;8.220;2023-05-28T01:37:20;19.07;;;6.97;;
4462;SDS011;2244;50.200;8.220;2023-05-28T01:39:48;20.23;;;6.40;;
4462;SDS011;2244;50.200;8.220;2023-05-28T01:42:17;20.63;;;6.50;;
4462;SDS011;2244;50.200;8.220;2023-05-28T01:44:44;15.07;;;6.10;;
4462;SDS011;2244;50.200;8.220;2023-05-28T01:47:13;16.20;;;6.10;;
4462;SDS011;2244;50.200;8.220;2023-05-28T01:49:41;15.03;;;5.73;;
4462;SDS011;2244;50.200;8.220;2023-05-28T01:52:08;17.63;;;6.43;;
4462;SDS011;2244;50.200;8.220;2023-05-28T01:54:36;16.97;;;6.33;;
4462;SDS011;2244;50.200;8.220;2023-05-28T01:57:04;17.57;;;6.10;;
4462;SDS011;2244;50.200;8.220;2023-05-28T01:59:31;15.77;;;6.00;;
4462;SDS011;2244;50.200;8.220;2023-05-28T02:01:59;19.37;;;6.40;;
4462;SDS011;2244;50.200;8.220;2023-05-28T02:04:26;22.80;;;6.47;;
4462;SDS011;2244;50.200;8.220;2023-05-28T02:06:54;14.63;;;6.13;;
4462;SDS011;2244;50.200;8.220;2023-05-28T02:09:22;17.63;;;6.40;;
4462;SDS011;2244;50.200;8.220;2023-05-28T02:11:49;20.00;;;6.90;;
4462;SDS011;2244;50.200;8.220;2023-05-28T02:14:17;14.90;;;6.07;;
4462;SDS011;2244;50.200;8.220;2023-05-28T02:16:48;17.07;;;6.90;;
4462;SDS011;2244;50.200;8.220;2023-05-28T02:19:16;18.17;;;7.30;;
4462;SDS011;2244;50.200;8.220;2023-05-28T02:21:44;18.03;;;6.23;;
4462;SDS011;2244;50.200;8.220;2023-05-28T02:24:12;22.87;;;6.90;;
4462;SDS011;2244;50.200;8.220;2023-05-28T02:26:39;16.80;;;6.23;;
4462;SDS011;2244;50.200;8.220;2023-05-28T02:29:07;20.10;;;6.73;;
4462;SDS011;2244;50.200;8.220;2023-05-28T02:31:35;18.77;;;6.77;;
4462;SDS011;2244;50.200;8.220;2023-05-28T02:34:02;16.87;;;6.10;;
4462;SDS011;2244;50.200;8.220;2023-05-28T02:36:30;16.93;;;6.47;;
4462;SDS011;2244;50.200;8.220;2023-05-28T02:38:59;17.90;;;6.63;;
4462;SDS011;2244;50.200;8.220;2023-05-28T02:41:26;17.20;;;6.40;;
4462;SDS011;2244;50.200;8.220;2023-05-28T02:43:54;17.53;;;6.83;;
4462;SDS011;2244;50.200;8.220;2023-05-28T02:46:21;15.30;;;6.03;;
4462;SDS011;2244;50.200;8.220;2023-05-28T02:48:49;15.47;;;5.67;;
4462;SDS011;2244;50.200;8.220;2023-05-28T02:51:16;20.37;;;6.70;;
4462;SDS011;2244;50.200;8.220;2023-05-28T02:53:44;20.83;;;7.00;;
4462;SDS011;2244;50.200;8.220;2023-05-28T02:56:12;18.43;;;6.43;;
4462;SDS011;2244;50.200;8.220;2023-05-28T02:58:39;18.40;;;6.77;;
4462;SDS011;2244;50.200;8.220;2023-05-28T03:01:07;20.13;;;6.77;;
4462;SDS011;2244;50.200;8.220;2023-05-28T03:03:34;21.20;;;6.80;;
4462;SDS011;2244;50.200;8.220;2023-05-28T03:06:02;17.73;;;6.17;;
4462;SDS011;2244;50.200;8.220;2023-05-28T03:08:29;15.97;;;6.30;;
4462;SDS011;2244;50.200;8.220;2023-05-28T03:10:57;22.70;;;6.53;;
4462;SDS011;2244;50.200;8.220;2023-05-28T03:13:24;18.10;;;7.17;;
4462;SDS011;2244;50.200;8.220;2023-05-28T03:15:51;22.27;;;6.50;;
4462;SDS011;2244;50.200;8.220;2023-05-28T03:18:20;19.30;;;6.83;;
4462;SDS011;2244;50.200;8.220;2023-05-28T03:20:47;16.60;;;6.20;;
4462;SDS011;2244;50.200;8.220;2023-05-28T03:23:14;14.97;;;6.40;;
4462;SDS011;2244;50.200;8.220;2023-05-28T03:25:42;19.20;;;6.60;;
4462;SDS011;2244;50.200;8.220;2023-05-28T03:28:09;16.10;;;6.93;;
4462;SDS011;2244;50.200;8.220;2023-05-28T03:30:37;19.60;;;6.87;;
4462;SDS011;2244;50.200;8.220;2023-05-28T03:33:04;24.37;;;7.60;;
4462;SDS011;2244;50.200;8.220;2023-05-28T03:35:32;15.50;;;6.30;;
4462;SDS011;2244;50.200;8.220;2023-05-28T03:37:59;21.93;;;7.47;;
4462;SDS011;2244;50.200;8.220;2023-05-28T03:40:27;15.70;;;6.60;;
4462;SDS011;2244;50.200;8.220;2023-05-28T03:42:54;20.17;;;6.80;;
4462;SDS011;2244;50.200;8.220;2023-05-28T03:45:21;17.57;;;6.37;;
4462;SDS011;2244;50.200;8.220;2023-05-28T03:47:49;16.77;;;6.00;;
4462;SDS011;2244;50.200;8.220;2023-05-28T03:50:16;15.50;;;6.00;;
4462;SDS011;2244;50.200;8.220;2023-05-28T03:52:44;18.10;;;6.50;;
4462;SDS011;2244;50.200;8.220;2023-05-28T03:55:12;17.43;;;6.20;;
4462;SDS011;2244;50.200;8.220;2023-05-28T03:57:39;16.20;;;6.00;;
4462;SDS011;2244;50.200;8.220;2023-05-28T04:00:07;16.97;;;6.57;;
4462;SDS011;2244;50.200;8.220;2023-05-28T04:02:35;16.53;;;6.70;;
4462;SDS011;2244;50.200;8.220;2023-05-28T04:05:03;20.03;;;6.50;;
4462;SDS011;2244;50.200;8.220;2023-05-28T04:07:31;16.50;;;6.47;;
4462;SDS011;2244;50.200;8.220;2023-05-28T04:09:58;13.80;;;5.60;;
4462;SDS011;2244;50.200;8.220;2023-05-28T04:12:26;15.23;;;5.40;;
4462;SDS011;2244;50.200;8.220;2023-05-28T04:14:53;15.50;;;5.57;;
4462;SDS011;2244;50.200;8.220;2023-05-28T04:17:22;15.67;;;6.23;;
4462;SDS011;2244;50.200;8.220;2023-05-28T04:19:50;17.43;;;5.10;;
4462;SDS011;2244;50.200;8.220;2023-05-28T04:22:17;18.03;;;5.57;;
4462;SDS011;2244;50.200;8.220;2023-05-28T04:24:45;16.70;;;5.93;;
4462;SDS011;2244;50.200;8.220;2023-05-28T04:27:14;13.37;;;5.80;;
4462;SDS011;2244;50.200;8.220;2023-05-28T04:29:41;14.17;;;4.97;;
4462;SDS011;2244;50.200;8.220;2023-05-28T04:32:10;15.03;;;6.20;;
4462;SDS011;2244;50.200;8.220;2023-05-28T04:34:38;14.70;;;4.97;;
4462;SDS011;2244;50.200;8.220;2023-05-28T04:37:07;16.87;;;5.50;;
4462;SDS011;2244;50.200;8.220;2023-05-28T04:39:34;19.87;;;6.27;;
4462;SDS011;2244;50.200;8.220;2023-05-28T04:42:02;15.70;;;5.63;;
4462;SDS011;2244;50.200;8.220;2023-05-28T04:44:31;14.40;;;5.33;;
4462;SDS011;2244;50.200;8.220;2023-05-28T04:46:59;12.87;;;4.60;;
4462;SDS011;2244;50.200;8.220;2023-05-28T04:49:26;14.17;;;4.90;;
4462;SDS011;2244;50.200;8.220;2023-05-28T04:51:54;11.90;;;4.73;;
4462;SDS011;2244;50.200;8.220;2023-05-28T04:54:21;15.10;;;5.20;;
4462;SDS011;2244;50.200;8.220;2023-05-28T04:56:49;14.20;;;4.90;;
4462;SDS011;2244;50.200;8.220;2023-05-28T04:59:16;11.53;;;4.40;;
4462;SDS011;2244;50.200;8.220;2023-05-28T05:01:44;14.07;;;4.80;;
4462;SDS011;2244;50.200;8.220;2023-05-28T05:04:12;14.20;;;5.37;;
4462;SDS011;2244;50.200;8.220;2023-05-28T05:06:39;13.27;;;5.10;;
4462;SDS011;2244;50.200;8.220;2023-05-28T05:09:07;14.93;;;5.10;;
4462;SDS011;2244;50.200;8.220;2023-05-28T05:11:35;15.17;;;5.17;;
4462;SDS011;2244;50.200;8.220;2023-05-28T05:14:02;15.10;;;5.73;;
4462;SDS011;2244;50.200;8.220;2023-05-28T05:16:30;13.00;;;4.93;;
4462;SDS011;2244;50.200;8.220;2023-05-28T05:18:58;16.73;;;4.93;;
4462;SDS011;2244;50.200;8.220;2023-05-28T05:21:25;13.33;;;4.37;;
4462;SDS011;2244;50.200;8.220;2023-05-28T05:23:53;16.60;;;6.20;;
4462;SDS011;2244;50.200;8.220;2023-05-28T05:26:21;19.13;;;6.23;;
4462;SDS011;2244;50.200;8.220;2023-05-28T05:28:48;16.27;;;5.40;;
4462;SDS011;2244;50.200;8.220;2023-05-28T05:31:16;18.60;;;6.13;;
4462;SDS011;2244;50.200;8.220;2023-05-28T05:33:44;13.73;;;5.27;;
4462;SDS011;2244;50.200;8.220;2023-05-28T05:36:11;14.70;;;5.57;;
4462;SDS011;2244;50.200;8.220;2023-05-28T05:38:39;15.83;;;5.80;;
4462;SDS011;2244;50.200;8.220;2023-05-28T05:41:06;15.63;;;5.93;;
4462;SDS011;2244;50.200;8.220;2023-05-28T05:43:34;17.13;;;5.93;;
4462;SDS011;2244;50.200;8.220;2023-05-28T05:46:01;14.43;;;5.30;;
4462;SDS011;2244;50.200;8.220;2023-05-28T05:48:29;22.07;;;5.90;;
4462;SDS011;2244;50.200;8.220;2023-05-28T05:50:56;16.60;;;5.90;;
4462;SDS011;2244;50.200;8.220;2023-05-28T05:53:28;17.50;;;5.60;;
4462;SDS011;2244;50.200;8.220;2023-05-28T05:55:55;31.23;;;6.20;;
4462;SDS011;2244;50.200;8.220;2023-05-28T05:58:23;20.37;;;7.70;;
4462;SDS011;2244;50.200;8.220;2023-05-28T06:00:51;15.53;;;6.90;;
4462;SDS011;2244;50.200;8.220;2023-05-28T06:03:18;16.57;;;5.60;;
4462;SDS011;2244;50.200;8.220;2023-05-28T06:05:46;20.40;;;5.70;;
4462;SDS011;2244;50.200;8.220;2023-05-28T06:08:13;16.70;;;6.40;;
4462;SDS011;2244;50.200;8.220;2023-05-28T06:10:41;16.17;;;5.90;;
4462;SDS011;2244;50.200;8.220;2023-05-28T06:13:08;17.20;;;5.90;;
4462;SDS011;2244;50.200;8.220;2023-05-28T06:15:35;13.33;;;5.13;;
4462;SDS011;2244;50.200;8.220;2023-05-28T06:18:04;14.43;;;5.10;;
4462;SDS011;2244;50.200;8.220;2023-05-28T06:20:32;13.93;;;4.53;;
4462;SDS011;2244;50.200;8.220;2023-05-28T06:22:59;13.87;;;4.40;;
4462;SDS011;2244;50.200;8.220;2023-05-28T06:25:27;13.90;;;4.30;;
4462;SDS011;2244;50.200;8.220;2023-05-28T06:27:54;13.13;;;5.10;;
4462;SDS011;2244;50.200;8.220;2023-05-28T06:30:23;19.50;;;5.83;;
4462;SDS011;2244;50.200;8.220;2023-05-28T06:32:51;14.17;;;4.80;;
4462;SDS011;2244;50.200;8.220;2023-05-28T06:35:18;13.77;;;4.27;;
4462;SDS011;2244;50.200;8.220;2023-05-28T06:37:46;14.83;;;4.60;;
4462;SDS011;2244;50.200;8.220;2023-05-28T06:40:13;14.77;;;4.73;;
4462;SDS011;2244;50.200;8.220;2023-05-28T06:42:41;14.60;;;5.03;;
4462;SDS011;2244;50.200;8.220;2023-05-28T06:45:09;15.87;;;5.37;;
4462;SDS011;2244;50.200;8.220;2023-05-28T06:47:37;12.07;;;4.47;;
4462;SDS011;2244;50.200;8.220;2023-05-28T06:50:05;15.27;;;4.67;;
4462;SDS011;2244;50.200;8.220;2023-05-28T06:52:32;14.00;;;4.40;;
4462;SDS011;2244;50.200;8.220;2023-05-28T06:55:00;12.60;;;4.57;;
4462;SDS011;2244;50.200;8.220;2023-05-28T06:57:27;16.87;;;5.13;;
4462;SDS011;2244;50.200;8.220;2023-05-28T06:59:55;15.90;;;4.60;;
4462;SDS011;2244;50.200;8.220;2023-05-28T07:02:22;12.70;;;4.53;;
4462;SDS011;2244;50.200;8.220;2023-05-28T07:04:49;12.10;;;4.37;;
4462;SDS011;2244;50.200;8.220;2023-05-28T07:07:17;16.57;;;4.50;;
4462;SDS011;2244;50.200;8.220;2023-05-28T07:09:44;14.30;;;4.60;;
4462;SDS011;2244;50.200;8.220;2023-05-28T07:12:12;14.93;;;4.87;;
4462;SDS011;2244;50.200;8.220;2023-05-28T07:14:39;15.27;;;4.67;;
4462;SDS011;2244;50.200;8.220;2023-05-28T07:17:07;13.30;;;3.93;;
4462;SDS011;2244;50.200;8.220;2023-05-28T07:19:35;16.20;;;5.37;;
4462;SDS011;2244;50.200;8.220;2023-05-28T07:22:02;14.33;;;4.60;;
4462;SDS011;2244;50.200;8.220;2023-05-28T07:24:29;18.77;;;5.07;;
4462;SDS011;2244;50.200;8.220;2023-05-28T07:26:57;13.73;;;4.40;;
4462;SDS011;2244;50.200;8.220;2023-05-28T07:29:29;13.40;;;3.80;;
4462;SDS011;2244;50.200;8.220;2023-05-28T07:31:54;19.33;;;5.07;;
4462;SDS011;2244;50.200;8.220;2023-05-28T07:34:22;14.23;;;4.63;;
4462;SDS011;2244;50.200;8.220;2023-05-28T07:36:49;15.87;;;4.83;;
4462;SDS011;2244;50.200;8.220;2023-05-28T07:39:16;14.37;;;4.70;;
4462;SDS011;2244;50.200;8.220;2023-05-28T07:41:44;14.23;;;4.60;;
4462;SDS011;2244;50.200;8.220;2023-05-28T07:44:11;15.10;;;5.10;;
4462;SDS011;2244;50.200;8.220;2023-05-28T07:46:40;16.30;;;5.20;;
4462;SDS011;2244;50.200;8.220;2023-05-28T07:49:08;19.93;;;8.20;;
4462;SDS011;2244;50.200;8.220;2023-05-28T07:51:36;16.23;;;5.33;;
4462;SDS011;2244;50.200;8.220;2023-05-28T07:54:04;19.13;;;6.00;;
4462;SDS011;2244;50.200;8.220;2023-05-28T07:56:32;17.80;;;5.30;;
4462;SDS011;2244;50.200;8.220;2023-05-28T07:58:59;11.90;;;4.17;;
4462;SDS011;2244;50.200;8.220;2023-05-28T08:01:27;16.13;;;4.60;;
4462;SDS011;2244;50.200;8.220;2023-05-28T08:03:54;12.93;;;4.47;;
4462;SDS011;2244;50.200;8.220;2023-05-28T08:06:22;14.70;;;4.93;;
4462;SDS011;2244;50.200;8.220;2023-05-28T08:08:49;14.97;;;4.40;;
4462;SDS011;2244;50.200;8.220;2023-05-28T08:11:16;14.10;;;4.60;;
4462;SDS011;2244;50.200;8.220;2023-05-28T08:13:44;13.70;;;4.83;;
4462;SDS011;2244;50.200;8.220;2023-05-28T08:16:12;18.60;;;4.50;;
4462;SDS011;2244;50.200;8.220;2023-05-28T08:18:39;15.90;;;4.80;;
4462;SDS011;2244;50.200;8.220;2023-05-28T08:21:07;15.80;;;5.00;;
4462;SDS011;2244;50.200;8.220;2023-05-28T08:23:35;22.70;;;4.43;;
4462;SDS011;2244;50.200;8.220;2023-05-28T08:26:02;18.13;;;4.83;;
4462;SDS011;2244;50.200;8.220;2023-05-28T08:28:30;16.70;;;4.47;;
4462;SDS011;2244;50.200;8.220;2023-05-28T08:31:00;14.70;;;4.47;;
4462;SDS011;2244;50.200;8.220;2023-05-28T08:33:27;12.47;;;4.17;;
4462;SDS011;2244;50.200;8.220;2023-05-28T08:35:54;16.10;;;4.70;;
4462;SDS011;2244;50.200;8.220;2023-05-28T08:38:22;16.07;;;4.50;;
4462;SDS011;2244;50.200;8.220;2023-05-28T08:40:53;12.80;;;4.20;;
4462;SDS011;2244;50.200;8.220;2023-05-28T08:43:19;15.10;;;4.90;;
4462;SDS011;2244;50.200;8.220;2023-05-28T08:45:46;14.60;;;4.40;;
4462;SDS011;2244;50.200;8.220;2023-05-28T08:48:14;12.50;;;4.17;;
4462;SDS011;2244;50.200;8.220;2023-05-28T08:50:45;13.73;;;5.17;;
4462;SDS011;2244;50.200;8.220;2023-05-28T08:53:12;13.20;;;4.20;;
4462;SDS011;2244;50.200;8.220;2023-05-28T08:55:40;12.50;;;4.50;;
4462;SDS011;2244;50.200;8.220;2023-05-28T08:58:08;13.40;;;4.20;;
4462;SDS011;2244;50.200;8.220;2023-05-28T09:00:37;12.67;;;4.23;;
4462;SDS011;2244;50.200;8.220;2023-05-28T09:03:04;17.27;;;4.47;;
4462;SDS011;2244;50.200;8.220;2023-05-28T09:05:37;17.37;;;4.93;;
4462;SDS011;2244;50.200;8.220;2023-05-28T09:08:09;15.50;;;4.60;;
4462;SDS011;2244;50.200;8.220;2023-05-28T09:10:37;14.93;;;4.60;;
4462;SDS011;2244;50.200;8.220;2023-05-28T09:13:05;13.43;;;4.40;;
4462;SDS011;2244;50.200;8.220;2023-05-28T09:15:33;14.67;;;4.50;;
4462;SDS011;2244;50.200;8.220;2023-05-28T09:18:05;12.47;;;3.80;;
4462;SDS011;2244;50.200;8.220;2023-05-28T09:20:33;12.87;;;4.60;;
4462;SDS011;2244;50.200;8.220;2023-05-28T09:23:01;12.93;;;4.27;;
4462;SDS011;2244;50.200;8.220;2023-05-28T09:25:29;16.80;;;4.37;;
4462;SDS011;2244;50.200;8.220;2023-05-28T09:27:59;11.27;;;3.87;;
4462;SDS011;2244;50.200;8.220;2023-05-28T09:30:27;10.03;;;4.10;;
4462;SDS011;2244;50.200;8.220;2023-05-28T09:33:02;14.40;;;4.47;;
4462;SDS011;2244;50.200;8.220;2023-05-28T09:35:30;14.93;;;4.07;;
4462;SDS011;2244;50.200;8.220;2023-05-28T09:40:43;13.70;;;4.30;;
4462;SDS011;2244;50.200;8.220;2023-05-28T09:43:11;14.97;;;4.70;;
4462;SDS011;2244;50.200;8.220;2023-05-28T09:45:39;13.23;;;4.43;;
4462;SDS011;2244;50.200;8.220;2023-05-28T09:48:07;13.10;;;4.70;;
4462;SDS011;2244;50.200;8.220;2023-05-28T09:50:34;15.70;;;4.60;;
4462;SDS011;2244;50.200;8.220;2023-05-28T09:53:02;18.13;;;5.03;;
4462;SDS011;2244;50.200;8.220;2023-05-28T09:55:30;15.27;;;4.47;;
4462;SDS011;2244;50.200;8.220;2023-05-28T09:58:01;16.20;;;4.13;;
4462;SDS011;2244;50.200;8.220;2023-05-28T10:00:32;13.47;;;4.53;;
4462;SDS011;2244;50.200;8.220;2023-05-28T10:03:05;18.00;;;4.63;;
4462;SDS011;2244;50.200;8.220;2023-05-28T10:05:31;11.97;;;4.13;;
4462;SDS011;2244;50.200;8.220;2023-05-28T10:07:59;11.93;;;4.53;;
4462;SDS011;2244;50.200;8.220;2023-05-28T10:10:28;12.63;;;4.60;;
4462;SDS011;2244;50.200;8.220;2023-05-28T10:12:56;12.70;;;4.53;;
4462;SDS011;2244;50.200;8.220;2023-05-28T10:15:24;11.93;;;4.10;;
4462;SDS011;2244;50.200;8.220;2023-05-28T10:17:52;11.83;;;4.70;;
4462;SDS011;2244;50.200;8.220;2023-05-28T10:20:20;18.20;;;5.30;;
4462;SDS011;2244;50.200;8.220;2023-05-28T10:22:48;12.13;;;4.23;;
4462;SDS011;2244;50.200;8.220;2023-05-28T10:25:16;11.53;;;4.27;;
4462;SDS011;2244;50.200;8.220;2023-05-28T10:27:44;14.33;;;4.30;;
4462;SDS011;2244;50.200;8.220;2023-05-28T10:33:05;12.93;;;4.47;;
4462;SDS011;2244;50.200;8.220;2023-05-28T10:35:33;14.53;;;4.93;;
4462;SDS011;2244;50.200;8.220;2023-05-28T10:38:02;15.70;;;5.20;;
4462;SDS011;2244;50.200;8.220;2023-05-28T10:40:30;11.00;;;3.97;;
4462;SDS011;2244;50.200;8.220;2023-05-28T10:42:59;15.10;;;4.37;;
4462;SDS011;2244;50.200;8.220;2023-05-28T10:45:36;14.60;;;4.90;;
4462;SDS011;2244;50.200;8.220;2023-05-28T10:48:04;15.33;;;4.63;;
4462;SDS011;2244;50.200;8.220;2023-05-28T10:50:33;14.57;;;4.90;;
4462;SDS011;2244;50.200;8.220;2023-05-28T10:53:06;13.33;;;4.27;;
4462;SDS011;2244;50.200;8.220;2023-05-28T10:55:47;33.13;;;6.60;;
4462;SDS011;2244;50.200;8.220;2023-05-28T10:58:24;15.90;;;6.10;;
4462;SDS011;2244;50.200;8.220;2023-05-28T11:00:52;13.40;;;4.20;;
4462;SDS011;2244;50.200;8.220;2023-05-28T11:06:07;17.03;;;4.73;;
4462;SDS011;2244;50.200;8.220;2023-05-28T11:08:44;14.53;;;4.37;;
4462;SDS011;2244;50.200;8.220;2023-05-28T11:11:10;15.17;;;4.80;;
4462;SDS011;2244;50.200;8.220;2023-05-28T11:13:48;15.37;;;3.83;;
4462;SDS011;2244;50.200;8.220;2023-05-28T11:16:12;12.90;;;4.30;;
4462;SDS011;2244;50.200;8.220;2023-05-28T11:18:41;13.23;;;4.07;;
4462;SDS011;2244;50.200;8.220;2023-05-28T11:21:09;14.90;;;4.67;;
4462;SDS011;2244;50.200;8.220;2023-05-28T11:23:36;11.07;;;4.43;;
4462;SDS011;2244;50.200;8.220;2023-05-28T11:26:04;12.97;;;4.23;;
4462;SDS011;2244;50.200;8.220;2023-05-28T11:28:33;15.90;;;4.63;;
4462;SDS011;2244;50.200;8.220;2023-05-28T11:31:00;15.67;;;4.23;;
4462;SDS011;2244;50.200;8.220;2023-05-28T11:33:28;14.63;;;4.67;;
4462;SDS011;2244;50.200;8.220;2023-05-28T11:35:59;12.83;;;3.90;;
4462;SDS011;2244;50.200;8.220;2023-05-28T11:38:28;12.87;;;4.73;;
4462;SDS011;2244;50.200;8.220;2023-05-28T11:41:04;13.83;;;4.30;;
4462;SDS011;2244;50.200;8.220;2023-05-28T11:43:28;11.23;;;3.83;;
4462;SDS011;2244;50.200;8.220;2023-05-28T11:45:59;12.53;;;4.67;;
4462;SDS011;2244;50.200;8.220;2023-05-28T11:48:26;12.83;;;4.43;;
4462;SDS011;2244;50.200;8.220;2023-05-28T11:51:02;13.60;;;4.83;;
4462;SDS011;2244;50.200;8.220;2023-05-28T11:56:08;13.20;;;4.70;;
4462;SDS011;2244;50.200;8.220;2023-05-28T11:58:37;12.23;;;4.00;;
4462;SDS011;2244;50.200;8.220;2023-05-28T12:01:06;13.50;;;4.43;;
4462;SDS011;2244;50.200;8.220;2023-05-28T12:03:34;12.00;;;4.33;;
4462;SDS011;2244;50.200;8.220;2023-05-28T12:06:03;12.80;;;4.23;;
4462;SDS011;2244;50.200;8.220;2023-05-28T12:08:30;13.20;;;4.10;;
4462;SDS011;2244;50.200;8.220;2023-05-28T12:11:01;14.27;;;4.40;;
4462;SDS011;2244;50.200;8.220;2023-05-28T12:13:33;13.20;;;4.40;;
4462;SDS011;2244;50.200;8.220;2023-05-28T12:16:05;13.20;;;4.57;;
4462;SDS011;2244;50.200;8.220;2023-05-28T12:18:33;12.20;;;4.87;;
4462;SDS011;2244;50.200;8.220;2023-05-28T12:21:00;17.90;;;5.30;;
4462;SDS011;2244;50.200;8.220;2023-05-28T12:23:28;14.63;;;4.53;;
4462;SDS011;2244;50.200;8.220;2023-05-28T12:25:56;13.07;;;4.27;;
4462;SDS011;2244;50.200;8.220;2023-05-28T12:28:23;17.10;;;6.00;;
4462;SDS011;2244;50.200;8.220;2023-05-28T12:30:52;12.83;;;4.30;;
4462;SDS011;2244;50.200;8.220;2023-05-28T12:33:22;12.90;;;5.13;;
4462;SDS011;2244;50.200;8.220;2023-05-28T12:35:49;13.23;;;4.60;;
4462;SDS011;2244;50.200;8.220;2023-05-28T12:38:18;12.30;;;4.60;;
4462;SDS011;2244;50.200;8.220;2023-05-28T12:40:46;15.23;;;5.30;;
4462;SDS011;2244;50.200;8.220;2023-05-28T12:43:14;13.33;;;4.80;;
4462;SDS011;2244;50.200;8.220;2023-05-28T12:45:46;12.00;;;4.20;;
4462;SDS011;2244;50.200;8.220;2023-05-28T12:48:14;11.77;;;4.83;;
4462;SDS011;2244;50.200;8.220;2023-05-28T12:50:42;12.17;;;4.73;;
4462;SDS011;2244;50.200;8.220;2023-05-28T12:53:09;11.00;;;4.37;;
4462;SDS011;2244;50.200;8.220;2023-05-28T12:55:37;12.30;;;4.50;;
4462;SDS011;2244;50.200;8.220;2023-05-28T12:58:04;13.07;;;5.30;;
4462;SDS011;2244;50.200;8.220;2023-05-28T13:00:32;11.43;;;4.50;;
4462;SDS011;2244;50.200;8.220;2023-05-28T13:03:01;13.70;;;5.83;;
4462;SDS011;2244;50.200;8.220;2023-05-28T13:05:30;11.57;;;5.17;;
4462;SDS011;2244;50.200;8.220;2023-05-28T13:08:01;11.10;;;4.77;;
4462;SDS011;2244;50.200;8.220;2023-05-28T13:10:29;12.07;;;5.23;;
4462;SDS011;2244;50.200;8.220;2023-05-28T13:12:57;13.60;;;5.27;;
4462;SDS011;2244;50.200;8.220;2023-05-28T13:15:24;14.27;;;5.10;;
4462;SDS011;2244;50.200;8.220;2023-05-28T13:17:52;12.60;;;5.53;;
4462;SDS011;2244;50.200;8.220;2023-05-28T13:20:20;13.13;;;5.17;;
4462;SDS011;2244;50.200;8.220;2023-05-28T13:22:47;15.40;;;5.43;;
4462;SDS011;2244;50.200;8.220;2023-05-28T13:25:15;16.30;;;6.00;;
4462;SDS011;2244;50.200;8.220;2023-05-28T13:27:42;16.07;;;6.10;;
4462;SDS011;2244;50.200;8.220;2023-05-28T13:30:10;12.67;;;5.17;;
4462;SDS011;2244;50.200;8.220;2023-05-28T13:32:38;14.93;;;5.33;;
4462;SDS011;2244;50.200;8.220;2023-05-28T13:35:05;14.40;;;5.00;;
4462;SDS011;2244;50.200;8.220;2023-05-28T13:37:33;12.33;;;5.30;;
4462;SDS011;2244;50.200;8.220;2023-05-28T13:40:01;11.63;;;4.80;;
4462;SDS011;2244;50.200;8.220;2023-05-28T13:42:30;12.27;;;5.00;;
4462;SDS011;2244;50.200;8.220;2023-05-28T13:44:59;12.83;;;4.53;;
4462;SDS011;2244;50.200;8.220;2023-05-28T13:47:26;14.80;;;5.17;;
4462;SDS011;2244;50.200;8.220;2023-05-28T13:49:54;12.10;;;5.23;;
4462;SDS011;2244;50.200;8.220;2023-05-28T13:52:21;12.93;;;4.97;;
4462;SDS011;2244;50.200;8.220;2023-05-28T13:54:49;12.23;;;4.97;;
4462;SDS011;2244;50.200;8.220;2023-05-28T13:57:17;12.93;;;4.97;;
4462;SDS011;2244;50.200;8.220;2023-05-28T13:59:46;14.70;;;4.90;;
4462;SDS011;2244;50.200;8.220;2023-05-28T14:02:15;16.53;;;4.50;;
4462;SDS011;2244;50.200;8.220;2023-05-28T14:04:43;12.87;;;4.50;;
4462;SDS011;2244;50.200;8.220;2023-05-28T14:07:10;20.00;;;5.40;;
4462;SDS011;2244;50.200;8.220;2023-05-28T14:09:37;13.93;;;4.40;;
4462;SDS011;2244;50.200;8.220;2023-05-28T14:12:05;14.13;;;5.33;;
4462;SDS011;2244;50.200;8.220;2023-05-28T14:14:34;11.13;;;4.50;;
4462;SDS011;2244;50.200;8.220;2023-05-28T14:17:01;12.17;;;4.50;;
4462;SDS011;2244;50.200;8.220;2023-05-28T14:19:29;12.80;;;4.90;;
4462;SDS011;2244;50.200;8.220;2023-05-28T14:21:57;10.93;;;5.17;;
4462;SDS011;2244;50.200;8.220;2023-05-28T14:24:24;13.53;;;4.70;;
4462;SDS011;2244;50.200;8.220;2023-05-28T14:26:51;11.30;;;4.77;;
4462;SDS011;2244;50.200;8.220;2023-05-28T14:29:19;13.77;;;5.47;;
4462;SDS011;2244;50.200;8.220;2023-05-28T14:31:47;12.13;;;4.93;;
4462;SDS011;2244;50.200;8.220;2023-05-28T14:34:14;11.20;;;4.77;;
4462;SDS011;2244;50.200;8.220;2023-05-28T14:36:42;12.20;;;5.03;;
4462;SDS011;2244;50.200;8.220;2023-05-28T14:39:09;11.90;;;5.13;;
4462;SDS011;2244;50.200;8.220;2023-05-28T14:41:37;13.50;;;4.90;;
4462;SDS011;2244;50.200;8.220;2023-05-28T14:44:04;12.67;;;5.00;;
4462;SDS011;2244;50.200;8.220;2023-05-28T14:46:32;12.13;;;5.00;;
4462;SDS011;2244;50.200;8.220;2023-05-28T14:48:59;12.70;;;4.93;;
4462;SDS011;2244;50.200;8.220;2023-05-28T14:51:27;10.40;;;4.27;;
4462;SDS011;2244;50.200;8.220;2023-05-28T14:53:54;11.90;;;4.10;;
4462;SDS011;2244;50.200;8.220;2023-05-28T14:56:22;11.40;;;4.20;;
4462;SDS011;2244;50.200;8.220;2023-05-28T14:58:50;14.20;;;4.73;;
4462;SDS011;2244;50.200;8.220;2023-05-28T15:01:17;13.37;;;4.40;;
4462;SDS011;2244;50.200;8.220;2023-05-28T15:03:44;14.03;;;4.90;;
4462;SDS011;2244;50.200;8.220;2023-05-28T15:06:12;10.63;;;4.50;;
4462;SDS011;2244;50.200;8.220;2023-05-28T15:08:40;15.37;;;5.17;;
4462;SDS011;2244;50.200;8.220;2023-05-28T15:11:08;11.63;;;5.33;;
4462;SDS011;2244;50.200;8.220;2023-05-28T15:13:36;12.50;;;4.70;;
4462;SDS011;2244;50.200;8.220;2023-05-28T15:16:03;10.27;;;4.50;;